createdAt,value
2023-04-09T00:00:47.348Z,30.73
2023-04-09T00:03:15.750Z,26.63
2023-04-09T00:05:44.704Z,28.50
2023-04-09T00:08:13.377Z,27.40
2023-04-09T00:10:41.582Z,30.67
2023-04-09T00:13:09.782Z,27.73
2023-04-09T00:15:38.629Z,27.10
2023-04-09T00:18:08.169Z,29.03
2023-04-09T00:20:36.385Z,25.80
2023-04-09T00:23:04.594Z,25.87
2023-04-09T00:25:32.716Z,25.13
2023-04-09T00:28:01.055Z,27.83
2023-04-09T00:30:29.936Z,27.90
2023-04-09T00:32:58.236Z,32.67
2023-04-09T00:35:27.776Z,26.07
2023-04-09T00:37:56.001Z,28.27
2023-04-09T00:40:24.166Z,31.50
2023-04-09T00:42:52.369Z,27.97
2023-04-09T00:45:20.679Z,32.23
2023-04-09T00:47:48.863Z,31.93
2023-04-09T00:50:17.862Z,31.27
2023-04-09T00:52:47.423Z,29.63
2023-04-09T00:55:16.545Z,30.33
2023-04-09T00:57:44.724Z,28.67
2023-04-09T01:00:14.056Z,27.57
2023-04-09T01:02:43.331Z,28.70
2023-04-09T01:05:12.297Z,28.20
2023-04-09T01:07:55.595Z,31.97
2023-04-09T01:10:31.988Z,26.17
2023-04-09T01:13:08.547Z,25.03
2023-04-09T01:15:43.789Z,25.07
2023-04-09T01:18:16.936Z,25.13
2023-04-09T01:20:52.975Z,28.23
2023-04-09T01:23:35.848Z,26.40
2023-04-09T01:26:19.338Z,27.43
2023-04-09T01:28:53.848Z,26.27
2023-04-09T01:31:27.732Z,29.07
2023-04-09T01:33:56.714Z,26.60
2023-04-09T01:36:27.315Z,27.50
2023-04-09T01:38:57.894Z,26.53
2023-04-09T01:41:27.232Z,30.33
2023-04-09T01:43:57.635Z,24.67
2023-04-09T01:46:27.256Z,26.77
2023-04-09T01:48:57.924Z,26.47
2023-04-09T01:51:27.236Z,28.30
2023-04-09T01:53:55.502Z,29.03
2023-04-09T01:56:23.673Z,26.00
2023-04-09T01:58:52.709Z,25.30
2023-04-09T02:01:28.569Z,25.57
2023-04-09T02:04:01.778Z,26.53
2023-04-09T02:06:42.034Z,29.60
2023-04-09T02:09:11.627Z,26.00
2023-04-09T02:11:43.234Z,25.27
2023-04-09T02:14:13.464Z,25.07
2023-04-09T02:16:43.743Z,26.53
2023-04-09T02:19:11.918Z,27.60
2023-04-09T02:21:40.054Z,24.53
2023-04-09T02:24:08.207Z,23.80
2023-04-09T02:26:36.331Z,23.10
2023-04-09T02:29:04.561Z,24.80
2023-04-09T02:31:32.726Z,24.50
2023-04-09T02:34:02.276Z,25.33
2023-04-09T02:36:31.081Z,23.37
2023-04-09T02:38:59.260Z,24.00
2023-04-09T02:41:27.400Z,25.83
2023-04-09T02:43:55.583Z,23.30
2023-04-09T02:46:23.865Z,24.63
2023-04-09T02:48:52.221Z,23.67
2023-04-09T02:51:21.941Z,26.60
2023-04-09T02:53:50.119Z,25.17
2023-04-09T02:56:18.299Z,26.00
2023-04-09T02:58:49.287Z,24.10
2023-04-09T03:01:17.567Z,26.93
2023-04-09T03:03:46.168Z,26.10
2023-04-09T03:06:14.466Z,23.63
2023-04-09T03:08:43.982Z,22.70
2023-04-09T03:11:12.263Z,25.33
2023-04-09T03:13:40.516Z,24.67
2023-04-09T03:16:10.210Z,21.50
2023-04-09T03:18:38.432Z,25.50
2023-04-09T03:21:07.991Z,25.73
2023-04-09T03:23:37.085Z,24.60
2023-04-09T03:26:07.567Z,25.10
2023-04-09T03:28:36.057Z,25.17
2023-04-09T03:31:04.217Z,23.47
2023-04-09T03:33:32.323Z,23.73
2023-04-09T03:36:00.488Z,28.00
2023-04-09T03:38:28.664Z,26.60
2023-04-09T03:40:57.732Z,23.20
2023-04-09T03:43:27.350Z,24.00
2023-04-09T03:45:55.479Z,28.07
2023-04-09T03:48:23.652Z,22.40
2023-04-09T03:50:53.503Z,27.07
2023-04-09T03:53:21.681Z,24.73
2023-04-09T03:55:49.873Z,24.50
2023-04-09T03:58:18.678Z,28.03
2023-04-09T04:00:48.621Z,27.30
2023-04-09T04:03:17.248Z,28.33
2023-04-09T04:05:45.561Z,23.67
2023-04-09T04:08:13.686Z,26.20
2023-04-09T04:10:41.836Z,24.07
2023-04-09T04:13:10.299Z,25.63
2023-04-09T04:15:41.957Z,26.47
2023-04-09T04:18:11.749Z,25.43
2023-04-09T04:20:40.391Z,22.97
2023-04-09T04:23:08.555Z,32.40
2023-04-09T04:25:36.682Z,24.00
2023-04-09T04:28:04.888Z,23.40
2023-04-09T04:30:33.058Z,24.30
2023-04-09T04:33:01.663Z,22.80
2023-04-09T04:35:31.358Z,23.60
2023-04-09T04:37:59.501Z,22.90
2023-04-09T04:40:27.807Z,22.60
2023-04-09T04:42:55.944Z,23.60
2023-04-09T04:45:24.103Z,21.80
2023-04-09T04:47:52.256Z,19.60
2023-04-09T04:50:20.585Z,22.40
2023-04-09T04:52:50.110Z,23.13
2023-04-09T04:55:18.380Z,20.60
2023-04-09T04:57:46.529Z,23.57
2023-04-09T05:00:15.586Z,30.80
2023-04-09T05:02:43.820Z,25.90
2023-04-09T05:05:12.093Z,23.47
2023-04-09T05:07:40.431Z,21.80
2023-04-09T05:10:11.031Z,23.17
2023-04-09T05:12:39.164Z,26.50
2023-04-09T05:15:08.437Z,22.30
2023-04-09T05:17:36.658Z,21.93
2023-04-09T05:20:05.277Z,18.97
2023-04-09T05:22:33.374Z,24.17
2023-04-09T05:25:01.655Z,19.63
2023-04-09T05:27:31.302Z,22.50
2023-04-09T05:30:00.749Z,22.97
2023-04-09T05:32:29.379Z,21.20
2023-04-09T05:34:57.623Z,23.27
2023-04-09T05:37:26.414Z,23.10
2023-04-09T05:39:54.560Z,20.87
2023-04-09T05:42:22.763Z,20.83
2023-04-09T05:44:52.270Z,19.63
2023-04-09T05:47:20.596Z,17.07
2023-04-09T05:49:48.735Z,22.63
2023-04-09T05:52:17.487Z,18.73
2023-04-09T05:54:45.593Z,20.03
2023-04-09T05:57:13.829Z,21.07
2023-04-09T05:59:41.970Z,16.60
2023-04-09T06:02:11.557Z,17.53
2023-04-09T06:04:39.701Z,17.60
2023-04-09T06:07:07.823Z,16.53
2023-04-09T06:09:35.950Z,17.93
2023-04-09T06:12:04.177Z,19.57
2023-04-09T06:14:33.616Z,17.57
2023-04-09T06:17:01.978Z,17.53
2023-04-09T06:19:31.548Z,16.10
2023-04-09T06:21:59.732Z,17.30
2023-04-09T06:24:27.932Z,18.17
2023-04-09T06:26:56.069Z,17.40
2023-04-09T06:29:24.462Z,16.60
2023-04-09T06:31:52.705Z,17.03
2023-04-09T06:34:21.029Z,14.47
2023-04-09T06:36:50.834Z,15.03
2023-04-09T06:39:18.999Z,15.90
2023-04-09T06:41:47.497Z,14.80
2023-04-09T06:44:15.725Z,14.93
2023-04-09T06:46:43.911Z,15.03
2023-04-09T06:49:12.108Z,14.20
2023-04-09T06:51:40.360Z,17.07
2023-04-09T06:54:10.039Z,13.70
2023-04-09T06:56:38.157Z,13.60
2023-04-09T06:59:06.371Z,14.10
2023-04-09T07:01:35.545Z,11.97
2023-04-09T07:04:03.930Z,13.63
2023-04-09T07:06:32.452Z,13.00
2023-04-09T07:09:00.618Z,12.60
2023-04-09T07:11:30.140Z,11.47
2023-04-09T07:13:58.277Z,13.40
2023-04-09T07:16:26.686Z,11.07
2023-04-09T07:18:54.899Z,12.30
2023-04-09T07:21:23.187Z,12.43
2023-04-09T07:23:51.640Z,16.90
2023-04-09T07:26:20.087Z,11.00
2023-04-09T07:28:49.856Z,10.97
2023-04-09T07:31:19.446Z,13.30
2023-04-09T07:33:47.792Z,11.93
2023-04-09T07:36:16.165Z,12.17
2023-04-09T07:38:45.169Z,10.47
2023-04-09T07:41:13.517Z,11.47
2023-04-09T07:43:42.507Z,8.63
2023-04-09T07:46:12.208Z,9.47
2023-04-09T07:48:40.378Z,11.50
2023-04-09T07:51:08.538Z,14.77
2023-04-09T07:53:36.736Z,10.80
2023-04-09T07:56:05.507Z,10.40
2023-04-09T07:58:33.641Z,10.33
2023-04-09T08:01:01.806Z,10.30
2023-04-09T08:03:31.631Z,12.23
2023-04-09T08:06:00.063Z,10.03
2023-04-09T08:08:28.417Z,10.83
2023-04-09T08:10:56.774Z,12.10
2023-04-09T08:13:25.326Z,11.87
2023-04-09T08:15:53.501Z,9.80
2023-04-09T08:18:23.421Z,8.60
2023-04-09T08:20:52.929Z,12.00
2023-04-09T08:23:21.152Z,10.10
2023-04-09T08:25:49.332Z,11.70
2023-04-09T08:28:17.537Z,10.10
2023-04-09T08:30:47.593Z,9.20
2023-04-09T08:33:16.283Z,11.30
2023-04-09T08:35:44.800Z,12.33
2023-04-09T08:38:14.950Z,11.60
2023-04-09T08:40:43.302Z,10.00
2023-04-09T08:43:13.859Z,8.80
2023-04-09T08:45:42.640Z,10.17
2023-04-09T08:48:11.511Z,9.23
2023-04-09T08:50:40.071Z,10.80
2023-04-09T08:53:10.564Z,10.13
2023-04-09T08:55:40.290Z,11.47
2023-04-09T08:58:09.466Z,11.30
2023-04-09T09:00:37.948Z,8.03
2023-04-09T09:03:08.332Z,10.30
2023-04-09T09:05:38.211Z,9.57
2023-04-09T09:08:07.737Z,8.70
2023-04-09T09:10:41.930Z,9.00
2023-04-09T09:13:18.398Z,7.87
2023-04-09T09:15:47.745Z,6.90
2023-04-09T09:18:15.953Z,9.07
2023-04-09T09:20:44.537Z,6.50
2023-04-09T09:23:12.675Z,8.57
2023-04-09T09:25:43.292Z,5.97
2023-04-09T09:28:13.288Z,7.00
2023-04-09T09:30:41.811Z,8.53
2023-04-09T09:33:11.824Z,4.80
2023-04-09T09:35:57.974Z,5.37
2023-04-09T09:38:26.190Z,7.00
2023-04-09T09:40:55.767Z,9.53
2023-04-09T09:43:23.982Z,7.77
2023-04-09T09:45:53.075Z,7.23
2023-04-09T09:48:21.284Z,6.40
2023-04-09T09:50:50.493Z,8.07
2023-04-09T09:53:23.611Z,7.73
2023-04-09T09:55:58.190Z,8.00
2023-04-09T09:58:30.950Z,7.30
2023-04-09T10:00:59.570Z,11.37
2023-04-09T10:03:32.038Z,8.57
2023-04-09T10:06:02.540Z,7.93
2023-04-09T10:08:33.374Z,6.63
2023-04-09T10:11:04.348Z,6.53
2023-04-09T10:13:38.141Z,7.03
2023-04-09T10:16:08.876Z,6.27
2023-04-09T10:18:37.742Z,9.10
2023-04-09T10:21:28.127Z,8.30
2023-04-09T10:23:57.195Z,7.00
2023-04-09T10:26:30.745Z,6.97
2023-04-09T10:29:08.289Z,6.47
2023-04-09T10:31:52.565Z,6.73
2023-04-09T10:34:23.275Z,7.47
2023-04-09T10:36:53.972Z,8.00
2023-04-09T10:39:22.434Z,7.10
2023-04-09T10:41:53.067Z,8.70
2023-04-09T10:44:22.453Z,6.80
2023-04-09T10:46:51.257Z,7.97
2023-04-09T10:49:21.524Z,7.60
2023-04-09T10:51:54.013Z,7.60
2023-04-09T10:54:45.775Z,7.83
2023-04-09T10:57:22.494Z,9.27
2023-04-09T10:59:52.957Z,8.73
2023-04-09T11:02:55.728Z,9.80
2023-04-09T11:05:30.881Z,7.87
2023-04-09T11:08:04.212Z,6.03
2023-04-09T11:10:32.976Z,5.67
2023-04-09T11:13:03.204Z,7.37
2023-04-09T11:15:33.558Z,6.80
2023-04-09T11:18:02.131Z,9.07
2023-04-09T11:20:31.269Z,8.07
2023-04-09T11:23:00.579Z,9.10
2023-04-09T11:25:29.979Z,7.30
2023-04-09T11:27:58.410Z,7.00
2023-04-09T11:30:28.908Z,8.17
2023-04-09T11:32:57.098Z,6.40
2023-04-09T11:35:25.558Z,8.87
2023-04-09T11:37:54.099Z,8.73
2023-04-09T11:40:24.109Z,7.73
2023-04-09T11:42:54.528Z,10.40
2023-04-09T11:45:25.297Z,9.23
2023-04-09T11:47:55.370Z,6.87
2023-04-09T11:50:24.158Z,9.70
2023-04-09T11:52:52.375Z,7.37
2023-04-09T11:55:28.314Z,7.73
2023-04-09T11:58:00.953Z,7.57
2023-04-09T12:00:30.054Z,7.23
2023-04-09T12:03:05.164Z,8.80
2023-04-09T12:05:35.715Z,7.40
2023-04-09T12:08:06.129Z,9.30
2023-04-09T12:10:36.641Z,7.10
2023-04-09T12:13:07.306Z,7.67
2023-04-09T12:15:36.929Z,6.67
2023-04-09T12:18:10.815Z,6.87
2023-04-09T12:20:40.700Z,7.50
2023-04-09T12:23:09.974Z,6.87
2023-04-09T12:25:39.327Z,8.60
2023-04-09T12:28:09.049Z,7.47
2023-04-09T12:30:37.244Z,6.60
2023-04-09T12:33:08.863Z,8.63
2023-04-09T12:35:38.987Z,6.17
2023-04-09T12:38:07.468Z,6.27
2023-04-09T12:40:37.219Z,6.40
2023-04-09T12:43:05.715Z,5.80
2023-04-09T12:45:34.334Z,5.30
2023-04-09T12:48:02.502Z,5.80
2023-04-09T12:50:32.183Z,6.10
2023-04-09T12:53:00.439Z,5.33
2023-04-09T12:55:28.993Z,7.10
2023-04-09T12:57:57.254Z,5.87
2023-04-09T13:00:25.634Z,5.83
2023-04-09T13:02:55.616Z,6.40
2023-04-09T13:05:24.022Z,7.53
2023-04-09T13:07:53.568Z,6.33
2023-04-09T13:10:21.735Z,6.10
2023-04-09T13:12:49.865Z,7.37
2023-04-09T13:15:18.010Z,6.87
2023-04-09T13:17:46.312Z,8.10
2023-04-09T13:20:14.884Z,7.43
2023-04-09T13:22:43.130Z,5.90
2023-04-09T13:25:14.435Z,5.90
2023-04-09T13:27:43.090Z,5.83
2023-04-09T13:30:11.631Z,5.40
2023-04-09T13:32:40.003Z,5.90
2023-04-09T13:35:09.012Z,5.57
2023-04-09T13:37:37.185Z,5.70
2023-04-09T13:40:06.004Z,5.43
2023-04-09T13:42:37.437Z,5.97
2023-04-09T13:45:07.056Z,7.10
2023-04-09T13:47:35.448Z,7.50
2023-04-09T13:50:03.821Z,5.87
2023-04-09T13:52:32.893Z,6.17
2023-04-09T13:55:01.302Z,8.57
2023-04-09T13:57:29.409Z,5.90
2023-04-09T14:00:01.786Z,5.73
2023-04-09T14:02:30.139Z,6.93
2023-04-09T14:04:58.556Z,5.80
2023-04-09T14:07:26.720Z,5.33
2023-04-09T14:09:54.860Z,4.63
2023-04-09T14:12:23.116Z,6.80
2023-04-09T14:14:51.605Z,5.20
2023-04-09T14:17:21.079Z,5.30
2023-04-09T14:19:49.225Z,6.90
2023-04-09T14:22:17.586Z,5.93
2023-04-09T14:24:45.754Z,5.20
2023-04-09T14:27:13.881Z,5.73
2023-04-09T14:29:42.043Z,8.23
2023-04-09T14:32:10.300Z,4.93
2023-04-09T14:34:39.824Z,6.07
2023-04-09T14:37:07.968Z,6.10
2023-04-09T14:39:36.265Z,5.50
2023-04-09T14:42:04.522Z,5.70
2023-04-09T14:44:32.880Z,6.50
2023-04-09T14:47:01.110Z,5.37
2023-04-09T14:49:29.293Z,6.97
2023-04-09T14:51:59.907Z,5.30
2023-04-09T14:54:29.120Z,5.13
2023-04-09T14:56:58.129Z,5.93
2023-04-09T14:59:26.942Z,6.40
2023-04-09T15:01:55.159Z,5.60
2023-04-09T15:04:23.592Z,9.73
2023-04-09T15:06:52.085Z,5.13
2023-04-09T15:09:21.657Z,6.10
2023-04-09T15:11:49.881Z,6.20
2023-04-09T15:14:20.278Z,7.00
2023-04-09T15:16:48.932Z,6.50
2023-04-09T15:19:17.466Z,5.87
2023-04-09T15:21:46.205Z,4.90
2023-04-09T15:24:14.383Z,5.00
2023-04-09T15:26:43.974Z,4.70
2023-04-09T15:29:12.096Z,5.43
2023-04-09T15:31:41.583Z,4.63
2023-04-09T15:34:09.995Z,4.67
2023-04-09T15:36:38.149Z,4.20
2023-04-09T15:39:06.538Z,4.07
2023-04-09T15:41:35.024Z,5.53
2023-04-09T15:44:05.009Z,4.70
2023-04-09T15:46:33.284Z,4.07
2023-04-09T15:49:01.596Z,3.50
2023-04-09T15:51:29.778Z,3.40
2023-04-09T15:53:57.980Z,4.60
2023-04-09T15:56:26.143Z,4.63
2023-04-09T15:58:54.639Z,4.40
2023-04-09T16:01:24.490Z,4.30
2023-04-09T16:03:52.844Z,4.23
2023-04-09T16:06:21.260Z,5.23
2023-04-09T16:08:49.456Z,3.70
2023-04-09T16:11:18.362Z,3.70
2023-04-09T16:13:46.790Z,4.30
2023-04-09T16:16:14.923Z,4.57
2023-04-09T16:18:44.450Z,9.10
2023-04-09T16:21:12.562Z,3.70
2023-04-09T16:23:40.902Z,3.70
2023-04-09T16:26:09.343Z,3.80
2023-04-09T16:28:37.574Z,4.60
2023-04-09T16:31:05.879Z,3.80
2023-04-09T16:33:34.058Z,3.57
2023-04-09T16:36:03.603Z,5.03
2023-04-09T16:38:31.778Z,5.53
2023-04-09T16:40:59.872Z,4.80
2023-04-09T16:43:27.984Z,4.10
2023-04-09T16:45:56.415Z,4.40
2023-04-09T16:48:24.629Z,3.93
2023-04-09T16:50:52.747Z,4.23
2023-04-09T16:53:22.265Z,6.40
2023-04-09T16:55:50.554Z,3.70
2023-04-09T16:58:18.671Z,3.63
2023-04-09T17:00:48.190Z,3.90
2023-04-09T17:03:17.487Z,5.20
2023-04-09T17:05:49.382Z,3.97
2023-04-09T17:08:17.951Z,3.80
2023-04-09T17:10:47.582Z,4.73
2023-04-09T17:13:15.804Z,4.37
2023-04-09T17:15:44.040Z,5.87
2023-04-09T17:18:12.251Z,5.30
2023-04-09T17:20:40.389Z,6.10
2023-04-09T17:23:08.644Z,4.20
2023-04-09T17:25:36.905Z,4.73
2023-04-09T17:28:06.921Z,5.17
2023-04-09T17:30:35.152Z,5.63
2023-04-09T17:33:03.372Z,5.57
2023-04-09T17:35:31.633Z,4.10
2023-04-09T17:37:59.818Z,5.30
2023-04-09T17:40:28.737Z,4.03
2023-04-09T17:42:57.007Z,5.17
2023-04-09T17:45:26.669Z,4.03
2023-04-09T17:47:55.227Z,9.50
2023-04-09T17:50:25.637Z,3.53
2023-04-09T17:52:53.820Z,4.00
2023-04-09T17:55:23.329Z,3.87
2023-04-09T17:57:51.710Z,5.90
2023-04-09T18:00:20.073Z,3.53
2023-04-09T18:02:53.749Z,4.67
2023-04-09T18:05:23.093Z,4.70
2023-04-09T18:07:52.174Z,5.10
2023-04-09T18:10:22.023Z,4.80
2023-04-09T18:12:50.201Z,4.33
2023-04-09T18:15:19.174Z,4.43
2023-04-09T18:17:49.006Z,3.97
2023-04-09T18:20:17.238Z,4.03
2023-04-09T18:22:46.167Z,4.20
2023-04-09T18:25:14.779Z,5.07
2023-04-09T18:27:43.451Z,4.70
2023-04-09T18:30:12.228Z,5.17
2023-04-09T18:32:40.572Z,4.83
2023-04-09T18:35:11.499Z,6.13
2023-04-09T18:37:40.016Z,4.87
2023-04-09T18:40:11.900Z,4.27
2023-04-09T18:42:40.501Z,5.60
2023-04-09T18:45:10.088Z,4.73
2023-04-09T18:47:40.397Z,4.17
2023-04-09T18:50:12.341Z,3.87
2023-04-09T18:52:40.632Z,5.00
2023-04-09T18:55:09.660Z,6.43
2023-04-09T18:57:37.949Z,5.03
2023-04-09T19:00:07.733Z,4.33
2023-04-09T19:02:36.062Z,4.70
2023-04-09T19:05:07.063Z,5.00
2023-04-09T19:07:37.708Z,4.40
2023-04-09T19:10:06.566Z,4.80
2023-04-09T19:12:34.820Z,5.17
2023-04-09T19:15:04.759Z,5.63
2023-04-09T19:17:33.909Z,4.30
2023-04-09T19:20:02.842Z,5.67
2023-04-09T19:22:31.120Z,5.90
2023-04-09T19:25:00.732Z,6.97
2023-04-09T19:27:29.550Z,5.10
2023-04-09T19:29:58.833Z,6.30
2023-04-09T19:32:27.079Z,5.43
2023-04-09T19:34:55.737Z,4.73
2023-04-09T19:37:27.515Z,5.83
2023-04-09T19:39:55.797Z,9.00
2023-04-09T19:42:28.484Z,4.43
2023-04-09T19:44:56.761Z,5.50
2023-04-09T19:47:25.107Z,4.63
2023-04-09T19:49:53.305Z,7.20
2023-04-09T19:52:21.411Z,6.57
2023-04-09T19:54:54.134Z,4.87
2023-04-09T19:57:22.285Z,4.83
2023-04-09T19:59:54.166Z,7.40
2023-04-09T20:02:22.430Z,5.27
2023-04-09T20:04:52.216Z,5.20
2023-04-09T20:07:20.369Z,5.00
2023-04-09T20:09:49.571Z,6.33
2023-04-09T20:12:17.767Z,5.70
2023-04-09T20:14:46.563Z,5.90
2023-04-09T20:17:17.088Z,9.23
2023-04-09T20:19:45.248Z,5.30
2023-04-09T20:22:13.415Z,6.17
2023-04-09T20:24:41.600Z,8.10
2023-04-09T20:27:10.115Z,6.70
2023-04-09T20:29:38.334Z,7.13
2023-04-09T20:32:06.886Z,10.87
2023-04-09T20:34:36.538Z,6.20
2023-04-09T20:37:05.549Z,5.27
2023-04-09T20:39:33.795Z,6.40
2023-04-09T20:42:01.973Z,6.80
2023-04-09T20:44:30.422Z,6.60
2023-04-09T20:46:58.589Z,6.50
2023-04-09T20:49:27.806Z,6.47
2023-04-09T20:51:57.364Z,5.37
2023-04-09T20:54:25.819Z,5.50
2023-04-09T20:56:54.326Z,5.90
2023-04-09T20:59:23.460Z,7.43
2023-04-09T21:01:52.326Z,6.20
2023-04-09T21:04:20.760Z,5.87
2023-04-09T21:06:49.080Z,5.80
2023-04-09T21:09:18.639Z,6.80
2023-04-09T21:11:46.859Z,6.83
2023-04-09T21:14:15.775Z,6.47
2023-04-09T21:16:44.037Z,7.23
2023-04-09T21:19:12.225Z,12.53
2023-04-09T21:21:40.374Z,8.10
2023-04-09T21:24:08.619Z,7.13
2023-04-09T21:26:50.272Z,7.63
2023-04-09T21:29:21.167Z,7.17
2023-04-09T21:31:49.682Z,6.40
2023-04-09T21:34:18.047Z,7.30
2023-04-09T21:36:46.483Z,7.37
2023-04-09T21:39:14.683Z,8.03
2023-04-09T21:41:44.233Z,8.40
2023-04-09T21:44:13.379Z,9.10
2023-04-09T21:46:42.776Z,6.33
2023-04-09T21:49:11.199Z,6.33
2023-04-09T21:51:40.083Z,7.87
2023-04-09T21:54:09.871Z,7.37
2023-04-09T21:56:39.221Z,7.13
2023-04-09T21:59:08.756Z,6.47
2023-04-09T22:01:37.025Z,9.70
2023-04-09T22:04:05.420Z,5.33
2023-04-09T22:06:33.604Z,6.60
2023-04-09T22:09:02.142Z,6.10
2023-04-09T22:11:30.521Z,7.47
2023-04-09T22:13:58.852Z,8.77
2023-04-09T22:16:28.508Z,7.10
2023-04-09T22:18:57.575Z,9.93
2023-04-09T22:21:26.594Z,7.27
2023-04-09T22:23:54.803Z,7.33
2023-04-09T22:26:22.969Z,9.00
2023-04-09T22:28:51.392Z,8.23
2023-04-09T22:31:19.776Z,10.20
2023-04-09T22:33:49.321Z,8.60
2023-04-09T22:36:17.530Z,7.63
2023-04-09T22:38:46.084Z,7.00
2023-04-09T22:41:15.874Z,6.90
2023-04-09T22:43:44.010Z,8.40
2023-04-09T22:46:12.138Z,6.77
2023-04-09T22:48:44.555Z,7.50
2023-04-09T22:51:15.457Z,9.17
2023-04-09T22:53:43.859Z,12.70
2023-04-09T22:56:12.632Z,7.30
2023-04-09T22:58:41.097Z,9.63
2023-04-09T23:01:09.383Z,10.87
2023-04-09T23:03:37.546Z,10.20
2023-04-09T23:06:06.101Z,10.37
2023-04-09T23:08:35.561Z,9.43
2023-04-09T23:11:05.213Z,8.70
2023-04-09T23:13:33.596Z,8.20
2023-04-09T23:16:04.782Z,8.40
2023-04-09T23:18:33.018Z,9.17
2023-04-09T23:21:04.852Z,8.63
2023-04-09T23:23:32.992Z,8.60
2023-04-09T23:26:02.548Z,10.50
2023-04-09T23:28:31.275Z,9.60
2023-04-09T23:30:59.796Z,8.80
2023-04-09T23:33:27.938Z,9.83
2023-04-09T23:35:56.053Z,8.43
2023-04-09T23:38:24.241Z,10.13
2023-04-09T23:40:52.434Z,8.97
2023-04-09T23:43:21.963Z,9.40
2023-04-09T23:45:50.546Z,10.50
2023-04-09T23:48:18.661Z,9.90
2023-04-09T23:50:47.718Z,9.83
2023-04-09T23:53:16.098Z,8.77
2023-04-09T23:55:45.328Z,9.47
2023-04-09T23:58:13.830Z,10.03
